Time;durP1;ratioP1;P1;durP2;ratioP2;P2;SDS_P1;SDS_P2;PMS_P1;PMS_P2;Temp;Humidity;BMP_temperature;BMP_pressure;BME280_temperature;BME280_humidity;BME280_pressure;Samples;Min_cycle;Max_cycle;Signal;HPM_P1;HPM_P2
2024/02/09 00:00:40;;;;;;;6.97;3.30;;;11.40;79.50;;;12.96;57.79;95524.13;5032410;28;20489;-67
2024/02/09 00:03:10;;;;;;;4.68;2.22;;;11.40;79.70;;;12.96;58.07;95524.13;5030904;28;20080;-67
2024/02/09 00:05:38;;;;;;;6.70;2.90;;;11.40;80.00;;;12.96;57.96;95527.63;5031524;28;20045;-67
2024/02/09 00:08:06;;;;;;;5.25;3.03;;;11.40;80.30;;;12.95;57.88;95522.50;5032234;28;20045;-67
2024/02/09 00:10:36;;;;;;;8.35;3.05;;;11.40;80.60;;;12.96;58.19;95518.78;5031043;28;20049;-66
2024/02/09 00:13:12;;;;;;;7.07;3.00;;;11.30;81.00;;;12.95;58.13;95518.00;5032177;28;20064;-67
2024/02/09 00:15:46;;;;;;;5.25;3.15;;;11.30;81.20;;;12.96;58.27;95510.78;5029743;28;20049;-67
2024/02/09 00:18:18;;;;;;;9.88;3.40;;;11.30;81.50;;;12.95;58.31;95511.81;5032139;28;20519;-67
2024/02/09 00:20:50;;;;;;;6.33;3.53;;;11.30;81.50;;;12.95;58.30;95507.31;5031041;28;20068;-67
2024/02/09 00:23:20;;;;;;;7.30;2.90;;;11.30;81.90;;;12.94;58.58;95494.19;5031762;28;20045;-66
2024/02/09 00:25:49;;;;;;;4.72;2.20;;;11.30;82.20;;;12.92;58.75;95497.06;5030172;28;20056;-67
2024/02/09 00:28:17;;;;;;;7.72;2.70;;;11.20;82.40;;;12.91;58.68;95495.47;5032056;28;20413;-66
2024/02/09 00:30:45;;;;;;;6.03;2.28;;;11.30;82.80;;;12.93;58.80;95484.53;5031690;28;20053;-66
2024/02/09 00:33:13;;;;;;;7.80;3.38;;;11.20;82.90;;;12.91;58.81;95494.63;5031934;28;20523;-66
2024/02/09 00:35:40;;;;;;;5.87;2.20;;;11.20;83.00;;;12.91;58.91;95492.78;5031253;28;20524;-66
2024/02/09 00:38:12;;;;;;;6.87;4.10;;;11.20;83.80;;;12.87;58.98;95491.63;5029647;28;20056;-66
2024/02/09 00:40:39;;;;;;;11.90;3.92;;;11.20;83.50;;;12.88;59.14;95487.88;5030384;28;20045;-66
2024/02/09 00:43:07;;;;;;;7.22;2.80;;;11.20;83.70;;;12.85;58.98;95492.88;5030192;28;20037;-66
2024/02/09 00:45:36;;;;;;;8.27;2.97;;;11.10;84.10;;;12.83;59.20;95478.94;5031055;28;20037;-67
2024/02/09 00:48:06;;;;;;;6.23;2.77;;;11.10;84.10;;;12.81;59.31;95484.50;5030461;28;20493;-66
2024/02/09 00:50:34;;;;;;;6.93;2.50;;;11.00;84.40;;;12.77;59.21;95477.97;5031393;28;20489;-66
2024/02/09 00:53:04;;;;;;;7.82;3.42;;;11.00;85.00;;;12.76;59.29;95484.38;5031494;28;20041;-66
2024/02/09 00:55:33;;;;;;;5.93;3.27;;;10.90;86.10;;;12.72;59.34;95481.34;5031040;28;20559;-66
2024/02/09 00:58:01;;;;;;;9.50;2.60;;;11.00;85.20;;;12.69;59.65;95479.13;5029956;28;20052;-66
2024/02/09 01:00:32;;;;;;;9.27;3.30;;;11.00;85.20;;;12.69;59.49;95483.66;5029852;28;20048;-66
2024/02/09 01:03:04;;;;;;;7.40;3.23;;;11.00;84.70;;;12.69;59.35;95484.47;5030233;28;20037;-66
2024/02/09 01:05:33;;;;;;;8.03;2.70;;;11.00;84.40;;;12.70;59.44;95490.63;5030831;28;20041;-66
2024/02/09 01:08:02;;;;;;;5.97;2.67;;;11.00;85.10;;;12.71;59.40;95489.56;5030688;28;20489;-66
2024/02/09 01:10:31;;;;;;;8.50;3.97;;;11.00;84.40;;;12.71;59.30;95487.72;5031354;28;20053;-66
2024/02/09 02:46:50;;;;;;;5.43;2.97;;;10.80;89.30;;;12.53;61.51;95402.38;5033216;28;20056;-66
2024/02/09 03:05:55;;;;;;;5.47;2.30;;;10.80;89.50;;;12.46;61.90;95372.28;5033253;28;20433;-66
2024/02/09 03:08:23;;;;;;;6.33;2.20;;;10.90;89.70;;;12.47;61.93;95371.28;5032979;28;20037;-66
2024/02/09 03:11:11;;;;;;;3.60;2.00;;;10.80;89.50;;;12.46;61.90;95366.97;5026330;28;20398;-67
2024/02/09 03:13:38;;;;;;;4.20;2.43;;;10.90;89.60;;;12.45;62.14;95366.16;5033455;28;20487;-66
2024/02/09 03:16:07;;;;;;;7.57;2.57;;;10.90;89.90;;;12.48;61.91;95364.88;5032722;28;20048;-66
2024/02/09 03:18:34;;;;;;;6.10;3.10;;;10.90;89.80;;;12.47;61.89;95358.72;5032125;28;20049;-66
2024/02/09 03:21:02;;;;;;;5.97;2.73;;;10.90;90.00;;;12.48;62.05;95356.88;5033081;28;20050;-67
2024/02/09 03:23:30;;;;;;;5.20;3.30;;;10.80;90.30;;;12.47;62.16;95358.72;5033286;28;20064;-66
2024/02/09 03:25:57;;;;;;;4.57;2.53;;;10.90;89.60;;;12.46;62.15;95354.41;5031437;28;20048;-67
2024/02/09 03:28:25;;;;;;;3.83;2.50;;;11.00;89.70;;;12.47;62.24;95358.72;5032949;28;20056;-66
2024/02/09 03:30:52;;;;;;;6.00;2.30;;;10.90;89.60;;;12.45;62.09;95358.16;5033132;28;20087;-66
2024/02/09 03:33:20;;;;;;;5.60;2.07;;;10.90;89.70;;;12.44;62.45;95351.16;5033156;28;20048;-66
2024/02/09 03:35:48;;;;;;;5.83;1.80;;;10.90;89.70;;;12.44;62.38;95348.50;5031463;28;20456;-66
2024/02/09 03:38:16;;;;;;;3.67;2.03;;;10.90;89.80;;;12.46;62.62;95340.28;5032031;28;20493;-66
2024/02/09 03:40:44;;;;;;;3.37;2.30;;;10.90;90.00;;;12.48;62.59;95346.19;5032852;28;20050;-66
2024/02/09 03:43:13;;;;;;;5.27;3.17;;;10.90;90.40;;;12.48;62.37;95341.66;5031936;28;20037;-67
2024/02/09 03:45:41;;;;;;;3.93;2.03;;;10.90;90.30;;;12.49;62.22;95339.81;5032376;28;20049;-66
2024/02/09 03:48:10;;;;;;;3.20;2.10;;;10.90;90.50;;;12.50;62.33;95336.09;5031632;28;20041;-67
2024/02/09 03:50:38;;;;;;;4.40;1.97;;;10.90;90.40;;;12.50;62.49;95333.44;5031247;28;20053;-66
2024/02/09 03:53:06;;;;;;;6.60;2.30;;;10.90;90.50;;;12.50;62.49;95333.44;5032571;28;20064;-66
2024/02/09 03:55:41;;;;;;;5.23;2.30;;;11.00;90.70;;;12.48;62.94;95322.19;5014779;28;20057;-66
2024/02/09 03:58:09;;;;;;;4.93;2.10;;;10.90;90.70;;;12.48;62.77;95317.66;5031552;28;20528;-67
2024/02/09 04:00:37;;;;;;;5.53;1.90;;;11.00;90.60;;;12.47;62.75;95329.38;5031586;28;20045;-67
2024/02/09 04:03:05;;;;;;;3.73;2.40;;;10.90;90.90;;;12.49;62.53;95324.63;5032165;28;20046;-67
2024/02/09 04:05:32;;;;;;;4.10;2.00;;;10.90;91.00;;;12.49;62.70;95321.94;5030569;28;20489;-68
2024/02/09 04:08:04;;;;;;;3.40;2.43;;;11.00;90.90;;;12.49;62.63;95313.13;5032285;28;20041;-67
2024/02/09 04:10:31;;;;;;;4.00;1.80;;;10.90;90.80;;;12.48;62.87;95314.16;5032480;28;20041;-67
2024/02/09 04:13:12;;;;;;;5.80;3.23;;;10.90;91.20;;;12.47;62.95;95318.69;5032213;28;20042;-67
2024/02/09 04:15:41;;;;;;;4.47;2.00;;;10.90;91.30;;;12.51;62.91;95321.72;5031451;28;20258;-67
2024/02/09 04:18:09;;;;;;;4.83;1.90;;;10.90;91.60;;;12.48;62.99;95322.97;5030915;28;20041;-67
2024/02/09 04:20:37;;;;;;;4.20;2.07;;;10.90;91.80;;;12.49;63.05;95327.28;5031713;28;20045;-67
2024/02/09 04:23:07;;;;;;;4.93;2.60;;;10.90;91.60;;;12.51;63.15;95327.06;5032043;28;20493;-68
2024/02/09 04:25:36;;;;;;;2.67;1.73;;;11.00;91.60;;;12.52;63.13;95323.34;5030314;28;20043;-68
2024/02/09 04:28:04;;;;;;;4.40;1.90;;;11.00;91.50;;;12.53;63.23;95325.78;5031905;28;20060;-67
2024/02/09 04:30:32;;;;;;;3.23;2.20;;;10.90;92.00;;;12.55;63.37;95325.56;5030978;28;20049;-67
2024/02/09 04:33:00;;;;;;;5.17;2.47;;;11.00;91.80;;;12.57;63.00;95326.94;5030765;28;20045;-67
2024/02/09 04:35:28;;;;;;;2.90;1.93;;;11.00;91.80;;;12.56;63.19;95322.66;5030409;28;20041;-67
2024/02/09 04:37:55;;;;;;;4.30;2.10;;;11.00;91.60;;;12.60;63.35;95320.31;5027850;28;20421;-67
2024/02/09 04:40:24;;;;;;;3.00;1.73;;;11.10;91.40;;;12.60;63.13;95318.50;5031458;28;20049;-68
2024/02/09 04:42:52;;;;;;;2.73;1.50;;;11.00;91.30;;;12.57;63.23;95328.81;5031689;28;20046;-67
2024/02/09 04:45:20;;;;;;;3.50;1.90;;;11.00;90.90;;;12.58;63.02;95319.75;5031627;28;20038;-67
2024/02/09 04:47:47;;;;;;;4.53;1.57;;;11.00;91.20;;;12.57;63.32;95312.78;5031526;28;20493;-68
2024/02/09 04:50:16;;;;;;;6.60;2.57;;;11.00;91.00;;;12.58;63.25;95317.06;5031556;28;20034;-67
2024/02/09 04:52:43;;;;;;;4.37;2.10;;;11.00;91.10;;;12.54;63.12;95321.25;5031277;28;20072;-68
2024/02/09 04:55:11;;;;;;;2.83;1.90;;;11.00;91.00;;;12.53;63.23;95314.31;5029849;28;20053;-67
2024/02/09 04:57:38;;;;;;;4.07;1.63;;;11.00;91.10;;;12.50;63.15;95312.88;5031532;28;20052;-68
2024/02/09 05:00:07;;;;;;;2.60;1.67;;;11.00;91.10;;;12.48;63.35;95308.84;5031293;28;20045;-67
2024/02/09 05:02:36;;;;;;;4.37;1.80;;;11.00;91.40;;;12.48;63.54;95314.16;5031041;28;20042;-67
2024/02/09 05:05:07;;;;;;;3.47;1.97;;;11.00;91.50;;;12.50;63.22;95315.56;5029863;28;20056;-67
2024/02/09 05:07:35;;;;;;;2.90;2.47;;;10.90;91.30;;;12.54;63.19;95314.06;5031261;28;20037;-67
2024/02/09 05:10:03;;;;;;;4.07;1.90;;;11.00;91.10;;;12.52;63.26;95297.47;5029784;28;20042;-68
2024/02/09 05:12:31;;;;;;;3.07;1.87;;;11.00;91.10;;;12.50;63.25;95294.22;5030209;28;20436;-68
2024/02/09 05:14:59;;;;;;;5.90;3.47;;;10.90;90.70;;;12.51;63.20;95293.19;5030873;28;20076;-68
2024/02/09 05:17:27;;;;;;;4.93;2.40;;;11.00;90.70;;;12.51;63.26;95285.16;5031105;28;20052;-67
2024/02/09 05:19:58;;;;;;;3.90;1.70;;;11.00;90.50;;;12.51;63.13;95293.19;5031240;28;20052;-67
2024/02/09 05:22:28;;;;;;;3.77;2.37;;;11.00;89.60;;;12.54;63.25;95276.72;5030601;28;20034;-68
2024/02/09 05:24:56;;;;;;;2.55;1.67;;;11.00;89.60;;;12.56;63.06;95282.63;5030802;28;20516;-67
2024/02/09 05:27:24;;;;;;;3.20;1.50;;;11.00;89.50;;;12.57;63.02;95286.09;5031382;28;20042;-67
2024/02/09 05:29:52;;;;;;;6.77;1.90;;;11.00;89.90;;;12.58;62.70;95282.38;5031003;28;20045;-68
2024/02/09 05:32:23;;;;;;;3.23;1.80;;;11.00;89.20;;;12.59;62.95;95290.16;5022915;28;20048;-68
2024/02/09 05:34:51;;;;;;;4.70;1.67;;;11.00;89.30;;;12.55;62.72;95291.66;5030900;28;20046;-68
2024/02/09 05:37:20;;;;;;;5.27;3.20;;;11.00;89.30;;;12.58;62.78;95280.53;5030877;28;20225;-68
2024/02/09 05:39:47;;;;;;;3.13;1.52;;;11.00;89.30;;;12.61;62.69;95285.41;5030246;28;20676;-68
2024/02/09 05:42:15;;;;;;;2.70;1.70;;;11.00;89.30;;;12.56;62.76;95281.78;5030774;28;20045;-68
2024/02/09 05:44:43;;;;;;;4.47;1.90;;;11.00;89.20;;;12.47;62.79;95286.69;5030459;28;20050;-68
2024/02/09 05:47:13;;;;;;;3.83;1.70;;;10.90;89.10;;;12.51;62.73;95287.03;5030601;28;20045;-68
2024/02/09 05:49:40;;;;;;;4.53;1.70;;;11.00;89.30;;;12.51;62.73;95282.50;5030633;28;20046;-68
2024/02/09 05:52:08;;;;;;;3.10;1.80;;;11.00;88.90;;;12.48;62.71;95269.59;5030651;28;20426;-68
2024/02/09 05:54:36;;;;;;;5.47;1.60;;;10.90;89.20;;;12.51;62.57;95279.84;5029283;28;20101;-68
2024/02/09 05:57:06;;;;;;;3.30;2.13;;;10.90;89.10;;;12.54;62.55;95273.22;5029340;28;20049;-68
2024/02/09 05:59:34;;;;;;;2.67;1.67;;;11.00;88.50;;;12.47;62.73;95281.34;5021547;28;20413;-68
2024/02/09 06:02:01;;;;;;;2.17;1.42;;;10.90;88.90;;;12.44;62.55;95271.13;5030601;28;20049;-67
2024/02/09 06:04:30;;;;;;;4.03;2.10;;;10.90;89.20;;;12.46;62.45;95261.03;5029672;28;20089;-68
2024/02/09 06:06:59;;;;;;;3.43;1.83;;;10.90;89.60;;;12.47;62.60;95272.53;5030392;28;20523;-68
2024/02/09 06:09:29;;;;;;;6.60;1.73;;;10.90;88.80;;;12.46;62.62;95263.69;5029305;28;20405;-68
2024/02/09 06:12:00;;;;;;;2.57;1.47;;;10.90;88.70;;;12.48;62.49;95269.59;5029077;28;20394;-67
2024/02/09 06:14:28;;;;;;;3.10;1.50;;;10.90;88.60;;;12.52;62.60;95272.63;5024991;28;20101;-67
2024/02/09 06:16:55;;;;;;;4.60;1.70;;;10.90;88.20;;;12.53;62.41;95275.06;5034234;28;20084;-67
2024/02/09 06:19:23;;;;;;;3.90;1.80;;;10.90;88.30;;;12.53;62.41;95274.28;5034108;28;20041;-67
2024/02/09 06:21:51;;;;;;;3.90;2.20;;;10.90;88.30;;;12.54;62.56;95275.88;5033338;28;20432;-67
2024/02/09 06:24:21;;;;;;;3.00;1.97;;;10.90;88.10;;;12.54;62.41;95273.22;5032915;28;20052;-68
2024/02/09 06:26:48;;;;;;;2.93;1.80;;;11.00;87.30;;;12.57;62.35;95273.56;5033985;28;20069;-67
2024/02/09 06:29:17;;;;;;;3.57;1.70;;;11.00;87.30;;;12.58;62.34;95275.22;5034153;28;20049;-67
2024/02/09 06:31:45;;;;;;;2.87;1.47;;;11.10;87.20;;;12.57;62.01;95280.78;5034066;28;20081;-67
2024/02/09 06:34:13;;;;;;;2.50;1.52;;;11.10;86.80;;;12.52;61.99;95275.31;5033834;28;20436;-67
2024/02/09 06:36:42;;;;;;;5.13;1.60;;;11.00;87.10;;;12.50;62.12;95285.41;5033593;28;20502;-67
2024/02/09 06:39:11;;;;;;;1.80;1.50;;;11.00;86.50;;;12.53;62.09;95285.75;5034078;28;20489;-66
2024/02/09 06:41:38;;;;;;;3.80;1.53;;;11.00;86.50;;;12.53;62.18;95277.75;5033981;28;20046;-69
2024/02/09 06:44:06;;;;;;;5.23;1.60;;;11.00;85.90;;;12.53;61.82;95290.28;5032867;28;20052;-67
2024/02/09 06:46:34;;;;;;;5.97;1.77;;;11.00;86.20;;;12.54;61.80;95300.72;5033220;28;20042;-64
2024/02/09 06:49:02;;;;;;;5.60;1.70;;;11.00;85.70;;;12.57;61.91;95302.91;5033868;28;20072;-65
2024/02/09 06:51:30;;;;;;;6.13;1.80;;;11.10;86.10;;;12.58;61.80;95298.38;5034270;28;20425;-66
2024/02/09 06:53:57;;;;;;;5.30;1.83;;;11.10;85.50;;;12.63;61.40;95303.84;5033924;28;20433;-64
2024/02/09 06:56:25;;;;;;;4.93;2.10;;;11.10;85.30;;;12.67;61.68;95306.88;5032936;28;20057;-63
2024/02/09 06:58:54;;;;;;;3.97;1.63;;;11.20;85.30;;;12.67;61.39;95305.03;5033547;28;20056;-62
2024/02/09 07:01:22;;;;;;;2.30;1.67;;;11.20;84.80;;;12.69;61.42;95302.13;5033154;28;20116;-63
2024/02/09 07:03:52;;;;;;;2.73;1.80;;;11.20;85.00;;;12.68;61.45;95313.84;5033526;28;20048;-63
2024/02/09 07:06:22;;;;;;;8.65;1.88;;;11.10;85.10;;;12.70;61.24;95315.25;5033008;28;20038;-64
2024/02/09 07:08:53;;;;;;;3.07;1.80;;;11.20;85.00;;;12.72;61.24;95307.00;5033268;28;20041;-64
2024/02/09 07:11:21;;;;;;;2.13;1.20;;;11.20;84.20;;;12.75;60.96;95306.53;5033286;28;20413;-63
2024/02/09 07:13:49;;;;;;;3.47;1.80;;;11.20;84.40;;;12.77;60.82;95307.13;5032322;28;20076;-62
2024/02/09 07:16:18;;;;;;;4.37;2.13;;;11.20;83.70;;;12.75;60.56;95309.19;5031714;28;20482;-62
2024/02/09 07:18:46;;;;;;;4.27;1.60;;;11.20;83.40;;;12.76;60.61;95311.66;5033423;28;20065;-65
2024/02/09 07:21:14;;;;;;;3.73;1.80;;;11.20;83.70;;;12.73;60.66;95314.78;5033251;28;20049;-67
2024/02/09 07:23:49;;;;;;;4.13;1.90;;;11.20;83.10;;;12.74;60.77;95321.75;5032758;28;20544;-68
2024/02/09 07:26:17;;;;;;;3.50;2.20;;;11.20;83.50;;;12.75;60.57;95309.19;5031311;28;20045;-66
2024/02/09 07:28:45;;;;;;;5.13;1.70;;;11.20;83.80;;;12.76;60.64;95305.50;5015316;28;20049;-67
2024/02/09 07:31:15;;;;;;;4.20;1.80;;;11.20;83.60;;;12.77;60.73;95301.78;5033109;28;20045;-68
2024/02/09 07:33:44;;;;;;;3.77;1.67;;;11.30;83.10;;;12.80;60.44;95302.13;5032441;28;20049;-68
2024/02/09 07:36:12;;;;;;;5.53;1.73;;;11.30;83.20;;;12.80;60.45;95307.47;5031498;28;20053;-66
2024/02/09 07:38:40;;;;;;;5.05;1.77;;;11.30;83.00;;;12.84;60.51;95299.00;5028851;28;20136;-66
2024/02/09 07:41:12;;;;;;;2.50;1.50;;;11.30;82.80;;;12.83;60.20;95297.38;5031702;28;20052;-66
2024/02/09 07:43:40;;;;;;;3.37;2.20;;;11.30;82.60;;;12.85;60.15;95301.41;5031043;28;20041;-66
2024/02/09 07:46:08;;;;;;;2.47;1.63;;;11.30;82.70;;;12.90;60.40;95303.41;5032093;28;20057;-66
2024/02/09 07:48:36;;;;;;;4.03;1.70;;;11.40;82.60;;;12.95;60.07;95298.16;5032505;28;20593;-66
2024/02/09 07:51:06;;;;;;;3.93;1.87;;;11.40;82.30;;;12.95;59.99;95299.00;5032747;28;20265;-65
2024/02/09 07:53:35;;;;;;;3.87;1.83;;;11.40;82.10;;;12.97;60.04;95302.25;5024564;28;20050;-64
2024/02/09 07:56:03;;;;;;;3.42;1.30;;;11.50;82.00;;;13.02;60.06;95296.19;5032056;28;20076;-62
2024/02/09 07:58:32;;;;;;;4.78;2.03;;;11.50;82.30;;;13.04;59.92;95301.31;5032644;28;20052;-62
2024/02/09 08:00:59;;;;;;;4.00;1.87;;;11.50;81.90;;;13.05;60.02;95311.75;5032727;28;20041;-62
2024/02/09 08:03:27;;;;;;;5.13;1.90;;;11.50;82.20;;;13.07;60.04;95319.56;5031188;28;20101;-61
2024/02/09 08:05:56;;;;;;;4.77;1.97;;;11.60;81.90;;;13.11;59.92;95307.34;5032179;28;20509;-62
2024/02/09 08:08:24;;;;;;;7.10;2.40;;;11.60;82.20;;;13.08;59.98;95313.94;5031990;28;20421;-62
2024/02/09 08:10:52;;;;;;;4.70;2.53;;;11.60;81.90;;;13.08;60.02;95305.13;5032233;28;20053;-65
2024/02/09 08:13:20;;;;;;;5.05;1.98;;;11.70;82.10;;;13.09;60.11;95307.56;5032215;28;20049;-64
2024/02/09 08:15:47;;;;;;;6.15;1.88;;;11.70;82.10;;;13.12;60.15;95300.94;5031820;28;20057;-65
2024/02/09 08:18:15;;;;;;;3.47;1.93;;;11.70;82.20;;;13.16;59.91;95299.41;5032028;28;20068;-65
2024/02/09 08:20:43;;;;;;;2.37;1.73;;;11.70;82.20;;;13.18;59.94;95300.84;5032178;28;20627;-64
2024/02/09 08:23:10;;;;;;;2.17;1.30;;;11.70;82.40;;;13.20;59.89;95298.75;5031717;28;20046;-65
2024/02/09 08:25:38;;;;;;;3.37;1.70;;;11.60;82.30;;;13.20;59.87;95306.75;5031754;28;20037;-65
2024/02/09 08:28:06;;;;;;;5.22;1.73;;;11.60;82.60;;;13.22;59.79;95309.16;5032159;28;20045;-65
2024/02/09 08:30:33;;;;;;;4.25;1.70;;;11.60;82.50;;;13.22;59.67;95303.81;5030707;28;20416;-64
2024/02/09 08:33:01;;;;;;;3.35;2.58;;;11.60;82.80;;;13.23;59.73;95315.34;5031966;28;20072;-67
2024/02/09 08:35:29;;;;;;;2.08;1.40;;;11.60;82.80;;;13.17;59.77;95306.41;5031535;28;20072;-64
2024/02/09 08:37:56;;;;;;;3.10;1.42;;;11.50;83.10;;;13.19;60.01;95309.66;5031358;28;20420;-65
2024/02/09 08:40:25;;;;;;;3.08;1.55;;;11.50;83.60;;;13.18;59.98;95314.19;5030047;28;20053;-66
2024/02/09 08:42:53;;;;;;;2.20;1.52;;;11.50;83.60;;;13.19;60.28;95307.78;5029973;28;20485;-65
2024/02/09 08:45:21;;;;;;;3.47;2.50;;;11.60;83.20;;;13.16;60.09;95302.09;5031369;28;20052;-65
2024/02/09 08:47:49;;;;;;;3.95;1.85;;;11.60;83.30;;;13.15;60.05;95303.16;5031527;28;20398;-65
2024/02/09 08:50:16;;;;;;;3.80;1.92;;;11.50;83.30;;;13.18;60.04;95300.84;5030235;28;20057;-65
2024/02/09 08:52:44;;;;;;;8.43;3.65;;;11.60;83.30;;;13.22;59.96;95292.34;5031389;28;20077;-65
2024/02/09 08:55:12;;;;;;;4.47;1.60;;;11.70;83.20;;;13.20;60.15;95289.88;5031130;28;20045;-65
2024/02/09 08:57:42;;;;;;;1.85;1.17;;;11.70;82.60;;;13.24;60.04;95290.22;5031265;28;20406;-65
2024/02/09 09:00:10;;;;;;;2.47;1.25;;;11.80;82.50;;;13.26;59.93;95288.13;5014420;28;20045;-66
2024/02/09 09:02:38;;;;;;;2.40;1.50;;;11.80;82.00;;;13.27;59.86;95300.47;5031308;28;20261;-67
2024/02/09 09:05:07;;;;;;;4.57;1.48;;;11.80;81.60;;;13.24;59.80;95299.09;5031088;28;20037;-67
2024/02/09 09:07:36;;;;;;;2.83;1.60;;;11.90;81.20;;;13.27;59.89;95295.94;5023110;28;20101;-66
2024/02/09 09:10:05;;;;;;;3.83;1.43;;;11.90;81.50;;;13.31;59.82;95294.44;5031560;28;20061;-66
2024/02/09 09:12:36;;;;;;;3.55;1.60;;;11.90;81.30;;;13.36;59.72;95283.06;5025857;28;20049;-67
2024/02/09 09:15:05;;;;;;;2.28;1.50;;;11.90;81.10;;;13.39;59.61;95293.25;5030845;28;20052;-66
2024/02/09 09:17:32;;;;;;;5.53;2.03;;;11.90;81.40;;;13.42;59.59;95289.31;5030906;28;20097;-66
2024/02/09 09:20:01;;;;;;;2.47;2.00;;;11.90;81.20;;;13.41;59.45;95287.69;5030816;28;20045;-66
2024/02/09 09:22:31;;;;;;;4.22;2.05;;;11.90;80.90;;;13.42;59.41;95290.13;5030904;28;20116;-66
2024/02/09 09:24:58;;;;;;;4.85;2.90;;;12.00;80.90;;;13.46;59.25;95293.13;5030704;28;20064;-66
2024/02/09 09:27:27;;;;;;;2.30;1.48;;;12.00;80.40;;;13.44;59.02;95285.34;5030793;28;20052;-66
2024/02/09 09:29:54;;;;;;;3.38;1.77;;;12.00;80.40;;;13.44;59.06;95284.56;5030996;28;20045;-66
2024/02/09 09:32:23;;;;;;;3.22;1.90;;;12.00;80.40;;;13.48;59.05;95275.00;5029713;28;20053;-66
2024/02/09 09:34:51;;;;;;;2.63;2.17;;;12.00;80.30;;;13.54;59.21;95284.75;5029194;28;20076;-66
2024/02/09 09:37:18;;;;;;;3.22;1.60;;;12.10;80.60;;;13.56;59.17;95283.44;5030856;28;20045;-66
2024/02/09 09:39:46;;;;;;;3.05;1.65;;;12.10;80.20;;;13.57;58.91;95281.56;5029089;28;20041;-66
2024/02/09 09:42:14;;;;;;;4.78;1.75;;;12.10;79.80;;;13.59;58.88;95282.19;5029281;28;20058;-66
2024/02/09 09:44:46;;;;;;;2.00;1.42;;;12.20;79.60;;;13.59;58.71;95274.16;5030475;28;20046;-66
2024/02/09 09:47:14;;;;;;;4.20;1.98;;;12.20;79.30;;;13.61;58.66;95281.91;5029477;28;20045;-66
2024/02/09 09:49:44;;;;;;;2.65;1.85;;;12.20;78.80;;;13.61;58.58;95274.72;5033790;28;20512;-66
2024/02/09 09:52:26;;;;;;;5.93;2.50;;;12.20;79.30;;;13.63;58.40;95275.31;5033540;28;20492;-66
2024/02/09 09:54:58;;;;;;;3.25;1.60;;;12.20;78.20;;;13.65;58.17;95275.03;5033583;28;20053;-66
2024/02/09 09:57:29;;;;;;;5.68;2.38;;;12.30;77.90;;;13.67;58.38;95276.44;5017778;28;20053;-66
2024/02/09 09:59:57;;;;;;;2.47;1.42;;;12.30;78.30;;;13.72;58.31;95275.72;5033683;28;20108;-66
2024/02/09 10:02:25;;;;;;;2.47;2.10;;;12.30;78.10;;;13.77;58.44;95273.97;5034539;28;20042;-66
2024/02/09 10:04:53;;;;;;;4.00;1.98;;;12.40;78.30;;;13.82;58.29;95280.44;5034382;28;20048;-66
2024/02/09 10:07:22;;;;;;;3.25;1.70;;;12.40;78.20;;;13.87;58.20;95275.22;5025421;28;20056;-66
2024/02/09 10:09:50;;;;;;;4.05;1.60;;;12.50;78.10;;;13.92;58.31;95269.94;5034696;28;20044;-66
2024/02/09 10:12:22;;;;;;;3.75;1.50;;;12.50;77.70;;;13.94;58.22;95273.22;5035069;28;20045;-65
2024/02/09 10:14:50;;;;;;;2.85;1.70;;;12.60;77.80;;;13.96;58.02;95263.88;5017585;28;20053;-65
2024/02/09 10:17:17;;;;;;;5.18;1.65;;;12.60;77.80;;;14.00;58.18;95261.53;5034372;28;20049;-65
2024/02/09 10:19:45;;;;;;;6.45;1.95;;;12.60;78.00;;;14.05;58.13;95264.28;5034525;28;20053;-65
2024/02/09 10:22:13;;;;;;;3.22;1.60;;;12.70;78.20;;;14.06;58.29;95267.78;5034193;28;20393;-65
2024/02/09 10:24:52;;;;;;;3.90;1.80;;;12.70;78.20;;;14.07;58.04;95261.38;5027859;28;20413;-67
2024/02/09 10:27:20;;;;;;;3.25;1.65;;;12.60;78.40;;;14.07;58.08;95267.53;5034178;28;20052;-65
2024/02/09 10:29:48;;;;;;;3.22;2.10;;;12.60;78.70;;;14.08;58.05;95260.34;5034251;28;20041;-65
2024/02/09 10:32:16;;;;;;;2.50;1.67;;;12.60;78.60;;;14.09;58.05;95264.63;5034149;28;20053;-69
2024/02/09 10:34:47;;;;;;;5.28;1.73;;;12.60;78.30;;;14.04;57.64;95256.53;5032679;28;20416;-66
2024/02/09 10:37:16;;;;;;;3.65;2.00;;;12.60;77.70;;;14.05;57.70;95268.84;5032748;28;20064;-67
2024/02/09 10:39:59;;;;;;;3.25;2.05;;;12.60;77.60;;;14.07;57.75;95259.50;5031568;28;20409;-67
2024/02/09 10:42:29;;;;;;;2.97;1.50;;;12.60;77.60;;;14.11;57.85;95266.03;5016483;28;20509;-68
2024/02/09 10:44:57;;;;;;;4.15;1.75;;;12.70;77.60;;;14.11;57.41;95266.03;5032342;28;20413;-67
2024/02/09 10:47:38;;;;;;;3.95;1.90;;;12.70;77.20;;;14.12;57.42;95254.25;5033841;28;20417;-67
2024/02/09 10:50:07;;;;;;;5.15;2.13;;;12.70;76.70;;;14.12;57.40;95256.94;5033038;28;20045;-67
2024/02/09 10:52:43;;;;;;;5.32;1.55;;;12.70;76.80;;;14.16;57.16;95254.59;5033361;28;20053;-66
2024/02/09 10:55:14;;;;;;;4.70;1.70;;;12.70;76.30;;;14.15;57.31;95252.94;5033529;28;20413;-66
2024/02/09 10:57:44;;;;;;;6.70;1.70;;;12.70;76.40;;;14.18;57.11;95249.78;5026777;28;20401;-69
2024/02/09 11:00:14;;;;;;;6.65;1.80;;;12.80;76.20;;;14.17;57.07;95238.28;5032570;28;20072;-69
2024/02/09 11:02:43;;;;;;;4.85;1.88;;;12.80;76.00;;;14.18;57.13;95245.25;5016542;28;20050;-66
2024/02/09 11:05:14;;;;;;;4.43;1.60;;;12.80;75.80;;;14.22;57.01;95242.09;5016855;28;20073;-70
2024/02/09 11:07:46;;;;;;;7.28;1.60;;;12.80;75.70;;;14.24;56.79;95238.13;5026528;28;20052;-64
2024/02/09 11:10:16;;;;;;;5.45;1.60;;;12.90;75.40;;;14.23;56.52;95236.50;5033157;28;20052;-69
2024/02/09 11:12:55;;;;;;;3.55;1.50;;;12.80;74.50;;;14.28;56.81;95241.13;5033137;28;20041;-65
2024/02/09 11:15:23;;;;;;;4.03;1.63;;;12.90;75.20;;;14.32;56.51;95236.91;5032954;28;20057;-68
2024/02/09 11:17:51;;;;;;;3.75;1.52;;;13.00;73.50;;;14.37;56.54;95240.47;5034273;28;20046;-66
2024/02/09 11:20:19;;;;;;;4.60;3.22;;;13.10;74.30;;;14.42;56.28;95239.72;5034176;28;20449;-67
2024/02/09 11:22:47;;;;;;;5.65;2.10;;;13.10;73.80;;;14.46;56.32;95232.03;5032972;28;20045;-67
2024/02/09 11:25:19;;;;;;;3.75;1.95;;;13.20;73.90;;;14.50;56.11;95230.47;5033345;28;20049;-67
2024/02/09 11:27:49;;;;;;;2.25;1.67;;;13.20;73.60;;;14.53;56.03;95232.69;5023245;28;20049;-67
2024/02/09 11:30:21;;;;;;;4.57;1.73;;;13.20;73.40;;;14.56;55.93;95218.81;5031956;28;20037;-67
2024/02/09 11:32:49;;;;;;;3.30;1.75;;;13.20;73.80;;;14.58;55.82;95222.09;5031989;28;20045;-67
2024/02/09 11:35:18;;;;;;;7.00;2.03;;;13.20;73.20;;;14.60;55.66;95219.97;5031378;28;20041;-67
2024/02/09 11:38:11;;;;;;;2.60;1.50;;;13.30;73.20;;;14.57;55.62;95231.16;5032925;28;20445;-66
2024/02/09 11:40:39;;;;;;;4.95;1.98;;;13.20;71.60;;;14.60;55.50;95225.34;5032818;28;20061;-66
2024/02/09 11:43:07;;;;;;;6.47;1.70;;;13.20;72.90;;;14.61;55.37;95221.59;5032755;28;20049;-66
2024/02/09 11:45:38;;;;;;;7.35;1.92;;;13.20;73.10;;;14.64;55.31;95226.47;5030351;28;20045;-66
2024/02/09 11:48:07;;;;;;;3.15;1.60;;;13.20;72.60;;;14.66;55.12;95221.66;5032633;28;20072;-66
2024/02/09 11:50:36;;;;;;;3.33;1.50;;;13.20;72.80;;;14.65;55.10;95224.59;5031730;28;20050;-66
2024/02/09 11:53:06;;;;;;;3.55;2.40;;;13.20;72.50;;;14.63;54.92;95222.16;5032745;28;20041;-66
2024/02/09 11:55:43;;;;;;;5.80;2.08;;;13.20;72.10;;;14.67;55.06;95214.44;5015298;28;20417;-67
2024/02/09 11:58:12;;;;;;;4.13;1.63;;;13.30;72.70;;;14.71;55.34;95208.34;5032740;28;20436;-67
2024/02/09 12:00:41;;;;;;;4.70;1.65;;;13.30;72.70;;;14.75;55.07;95211.34;5031298;28;20041;-67
2024/02/09 12:03:11;;;;;;;1.80;1.42;;;13.40;72.50;;;14.79;55.29;95206.28;5031022;28;20045;-67
2024/02/09 12:05:46;;;;;;;5.07;2.25;;;13.40;72.40;;;14.83;55.17;95208.25;5022886;28;20501;-65
2024/02/09 12:08:20;;;;;;;4.10;1.95;;;13.50;73.00;;;14.82;54.88;95198.59;5031289;28;20048;-66
2024/02/09 12:10:50;;;;;;;3.53;1.48;;;13.50;72.10;;;14.83;55.07;95202.06;5024685;28;20068;-67
2024/02/09 12:13:19;;;;;;;4.40;2.35;;;13.40;72.30;;;14.85;55.09;95198.09;5030465;28;20045;-65
2024/02/09 12:15:47;;;;;;;2.60;1.70;;;13.50;72.80;;;14.86;55.13;95188.19;5031925;28;20048;-66
2024/02/09 12:18:16;;;;;;;3.38;1.75;;;13.50;72.80;;;14.87;55.22;95193.31;5031963;28;20046;-67